Terminal Aerodrome Forecast
Issued by NWS Sioux Falls, SD

Home | Current Version | Previous Version | Graphics & Text | Print | Product List | Glossary Off
Versions: 1 2 3 4 5 6 7 8 9 10 11 12 13 14 15 16

000
FTUS43 KFSD 210520
TAFFSD
TAF
KFSD 210520Z 2106/2206 11009KT P6SM SCT250
     FM211000 12008KT P6SM -TSRA SCT070CB BKN100
     FM211400 15009KT P6SM SCT100 BKN200
     FM211800 17009KT P6SM SCT200
     FM212200 16009KT P6SM SCT100=

USA.gov is the U.S. government's official web portal to all federal, state and local government web resources and services.